sensor_id;sensor_type;location;lat;lon;timestamp;temperature;humidity
43673;DHT22;41723;49.326;8.430;2023-06-26T00:01:27;24.80;92.80
43673;DHT22;41723;49.326;8.430;2023-06-26T00:03:55;24.90;92.70
43673;DHT22;41723;49.326;8.430;2023-06-26T00:06:20;24.90;92.40
43673;DHT22;41723;49.326;8.430;2023-06-26T00:08:49;24.70;92.30
43673;DHT22;41723;49.326;8.430;2023-06-26T00:11:15;24.60;92.80
43673;DHT22;41723;49.326;8.430;2023-06-26T00:13:40;24.60;92.50
43673;DHT22;41723;49.326;8.430;2023-06-26T00:16:07;24.60;93.20
43673;DHT22;41723;49.326;8.430;2023-06-26T00:18:32;24.70;93.40
43673;DHT22;41723;49.326;8.430;2023-06-26T00:20:58;24.80;92.80
43673;DHT22;41723;49.326;8.430;2023-06-26T00:23:23;24.80;93.20
43673;DHT22;41723;49.326;8.430;2023-06-26T00:25:49;24.60;93.60
43673;DHT22;41723;49.326;8.430;2023-06-26T00:28:15;24.60;93.20
43673;DHT22;41723;49.326;8.430;2023-06-26T00:30:40;24.40;93.50
43673;DHT22;41723;49.326;8.430;2023-06-26T00:33:06;24.50;93.80
43673;DHT22;41723;49.326;8.430;2023-06-26T00:35:31;24.60;93.40
43673;DHT22;41723;49.326;8.430;2023-06-26T00:37:57;24.60;93.80
43673;DHT22;41723;49.326;8.430;2023-06-26T00:40:22;24.60;93.60
43673;DHT22;41723;49.326;8.430;2023-06-26T00:42:49;24.60;94.00
43673;DHT22;41723;49.326;8.430;2023-06-26T00:45:15;24.60;93.50
43673;DHT22;41723;49.326;8.430;2023-06-26T00:47:41;24.50;93.80
43673;DHT22;41723;49.326;8.430;2023-06-26T00:50:07;24.50;94.30
43673;DHT22;41723;49.326;8.430;2023-06-26T00:52:33;24.50;93.90
43673;DHT22;41723;49.326;8.430;2023-06-26T00:54:59;24.40;94.40
43673;DHT22;41723;49.326;8.430;2023-06-26T00:57:24;24.40;93.60
43673;DHT22;41723;49.326;8.430;2023-06-26T00:59:50;24.20;94.20
43673;DHT22;41723;49.326;8.430;2023-06-26T01:02:15;24.20;94.20
43673;DHT22;41723;49.326;8.430;2023-06-26T01:04:47;24.10;94.00
43673;DHT22;41723;49.326;8.430;2023-06-26T01:07:13;24.10;94.60
43673;DHT22;41723;49.326;8.430;2023-06-26T01:09:38;24.20;94.80
43673;DHT22;41723;49.326;8.430;2023-06-26T01:12:04;24.10;94.30
43673;DHT22;41723;49.326;8.430;2023-06-26T01:14:30;24.10;94.80
43673;DHT22;41723;49.326;8.430;2023-06-26T01:16:58;24.10;95.00
43673;DHT22;41723;49.326;8.430;2023-06-26T01:19:26;24.00;94.90
43673;DHT22;41723;49.326;8.430;2023-06-26T01:21:55;24.00;94.70
43673;DHT22;41723;49.326;8.430;2023-06-26T01:24:22;24.00;94.20
43673;DHT22;41723;49.326;8.430;2023-06-26T01:26:52;24.00;95.50
43673;DHT22;41723;49.326;8.430;2023-06-26T01:29:18;24.00;94.30
43673;DHT22;41723;49.326;8.430;2023-06-26T01:31:45;24.00;94.70
43673;DHT22;41723;49.326;8.430;2023-06-26T01:34:13;23.90;94.80
43673;DHT22;41723;49.326;8.430;2023-06-26T01:36:40;23.80;95.10
43673;DHT22;41723;49.326;8.430;2023-06-26T01:39:06;23.80;94.90
43673;DHT22;41723;49.326;8.430;2023-06-26T01:41:33;23.70;95.00
43673;DHT22;41723;49.326;8.430;2023-06-26T01:44:09;23.70;95.70
43673;DHT22;41723;49.326;8.430;2023-06-26T01:46:42;23.60;94.90
43673;DHT22;41723;49.326;8.430;2023-06-26T01:51:47;23.50;95.10
43673;DHT22;41723;49.326;8.430;2023-06-26T01:54:16;23.50;95.00
43673;DHT22;41723;49.326;8.430;2023-06-26T01:56:43;23.30;95.00
43673;DHT22;41723;49.326;8.430;2023-06-26T01:59:10;23.30;95.20
43673;DHT22;41723;49.326;8.430;2023-06-26T02:01:37;23.20;95.40
43673;DHT22;41723;49.326;8.430;2023-06-26T02:04:02;23.30;95.60
43673;DHT22;41723;49.326;8.430;2023-06-26T02:06:30;23.20;96.10
43673;DHT22;41723;49.326;8.430;2023-06-26T02:08:55;23.30;96.60
43673;DHT22;41723;49.326;8.430;2023-06-26T02:11:22;23.40;96.30
43673;DHT22;41723;49.326;8.430;2023-06-26T02:13:48;23.40;96.50
43673;DHT22;41723;49.326;8.430;2023-06-26T02:16:13;23.40;96.70
43673;DHT22;41723;49.326;8.430;2023-06-26T02:18:41;23.50;96.40
43673;DHT22;41723;49.326;8.430;2023-06-26T02:21:06;23.40;96.70
43673;DHT22;41723;49.326;8.430;2023-06-26T02:23:32;23.40;96.90
43673;DHT22;41723;49.326;8.430;2023-06-26T02:25:58;23.30;96.10
43673;DHT22;41723;49.326;8.430;2023-06-26T02:28:23;23.20;96.90
43673;DHT22;41723;49.326;8.430;2023-06-26T02:30:49;23.30;96.90
43673;DHT22;41723;49.326;8.430;2023-06-26T02:33:14;23.30;96.10
43673;DHT22;41723;49.326;8.430;2023-06-26T02:35:40;23.30;97.00
43673;DHT22;41723;49.326;8.430;2023-06-26T02:38:06;23.20;96.90
43673;DHT22;41723;49.326;8.430;2023-06-26T02:40:32;23.20;96.90
43673;DHT22;41723;49.326;8.430;2023-06-26T02:42:58;23.20;96.50
43673;DHT22;41723;49.326;8.430;2023-06-26T02:45:24;23.30;97.20
43673;DHT22;41723;49.326;8.430;2023-06-26T02:47:50;23.30;97.00
43673;DHT22;41723;49.326;8.430;2023-06-26T02:50:15;23.20;97.00
43673;DHT22;41723;49.326;8.430;2023-06-26T02:53:04;23.20;97.10
43673;DHT22;41723;49.326;8.430;2023-06-26T02:55:30;23.20;97.00
43673;DHT22;41723;49.326;8.430;2023-06-26T02:57:56;23.20;97.10
43673;DHT22;41723;49.326;8.430;2023-06-26T03:00:22;23.20;97.00
43673;DHT22;41723;49.326;8.430;2023-06-26T03:02:49;23.10;96.50
43673;DHT22;41723;49.326;8.430;2023-06-26T03:05:18;23.10;96.90
43673;DHT22;41723;49.326;8.430;2023-06-26T03:07:43;22.90;96.90
43673;DHT22;41723;49.326;8.430;2023-06-26T03:10:10;22.60;97.00
43673;DHT22;41723;49.326;8.430;2023-06-26T03:12:35;22.60;98.00
43673;DHT22;41723;49.326;8.430;2023-06-26T03:15:01;22.70;97.30
43673;DHT22;41723;49.326;8.430;2023-06-26T03:17:26;22.70;97.70
43673;DHT22;41723;49.326;8.430;2023-06-26T03:19:57;22.80;97.80
43673;DHT22;41723;49.326;8.430;2023-06-26T03:22:28;22.70;96.80
43673;DHT22;41723;49.326;8.430;2023-06-26T03:24:53;22.60;97.80
43673;DHT22;41723;49.326;8.430;2023-06-26T03:27:21;22.60;97.50
43673;DHT22;41723;49.326;8.430;2023-06-26T03:29:48;22.70;97.40
43673;DHT22;41723;49.326;8.430;2023-06-26T03:32:14;22.60;97.70
43673;DHT22;41723;49.326;8.430;2023-06-26T03:34:39;22.60;98.10
43673;DHT22;41723;49.326;8.430;2023-06-26T03:37:06;22.60;97.60
43673;DHT22;41723;49.326;8.430;2023-06-26T03:39:31;22.60;97.60
43673;DHT22;41723;49.326;8.430;2023-06-26T03:41:57;22.50;98.00
43673;DHT22;41723;49.326;8.430;2023-06-26T03:44:26;22.60;97.70
43673;DHT22;41723;49.326;8.430;2023-06-26T03:46:51;22.60;97.50
43673;DHT22;41723;49.326;8.430;2023-06-26T03:49:17;22.60;98.00
43673;DHT22;41723;49.326;8.430;2023-06-26T03:51:43;22.60;97.70
43673;DHT22;41723;49.326;8.430;2023-06-26T03:54:09;22.60;97.90
43673;DHT22;41723;49.326;8.430;2023-06-26T03:56:34;22.40;98.00
43673;DHT22;41723;49.326;8.430;2023-06-26T03:59:00;22.50;97.80
43673;DHT22;41723;49.326;8.430;2023-06-26T04:01:26;22.30;98.40
43673;DHT22;41723;49.326;8.430;2023-06-26T04:03:51;22.20;98.30
43673;DHT22;41723;49.326;8.430;2023-06-26T04:06:17;22.10;98.60
43673;DHT22;41723;49.326;8.430;2023-06-26T04:08:43;22.00;98.80
43673;DHT22;41723;49.326;8.430;2023-06-26T04:11:08;21.90;99.10
43673;DHT22;41723;49.326;8.430;2023-06-26T04:13:34;21.70;99.40
43673;DHT22;41723;49.326;8.430;2023-06-26T04:15:59;21.50;99.90
43673;DHT22;41723;49.326;8.430;2023-06-26T04:18:25;21.30;99.90
43673;DHT22;41723;49.326;8.430;2023-06-26T04:21:04;21.60;99.90
43673;DHT22;41723;49.326;8.430;2023-06-26T04:23:29;21.80;99.90
43673;DHT22;41723;49.326;8.430;2023-06-26T04:25:56;22.00;99.90
43673;DHT22;41723;49.326;8.430;2023-06-26T04:28:23;21.90;99.20
43673;DHT22;41723;49.326;8.430;2023-06-26T04:30:49;21.70;99.90
43673;DHT22;41723;49.326;8.430;2023-06-26T04:33:15;21.60;99.60
43673;DHT22;41723;49.326;8.430;2023-06-26T04:35:40;21.50;99.80
43673;DHT22;41723;49.326;8.430;2023-06-26T04:38:06;21.60;99.90
43673;DHT22;41723;49.326;8.430;2023-06-26T04:40:32;21.80;99.70
43673;DHT22;41723;49.326;8.430;2023-06-26T04:42:57;21.90;99.40
43673;DHT22;41723;49.326;8.430;2023-06-26T04:45:23;22.00;99.20
43673;DHT22;41723;49.326;8.430;2023-06-26T04:47:49;21.80;99.00
43673;DHT22;41723;49.326;8.430;2023-06-26T04:50:14;21.50;99.30
43673;DHT22;41723;49.326;8.430;2023-06-26T04:52:40;21.60;99.90
43673;DHT22;41723;49.326;8.430;2023-06-26T04:55:05;21.80;99.10
43673;DHT22;41723;49.326;8.430;2023-06-26T04:57:31;21.70;99.10
43673;DHT22;41723;49.326;8.430;2023-06-26T04:59:56;21.70;99.70
43673;DHT22;41723;49.326;8.430;2023-06-26T05:02:22;21.70;99.10
43673;DHT22;41723;49.326;8.430;2023-06-26T05:04:48;21.80;99.40
43673;DHT22;41723;49.326;8.430;2023-06-26T05:07:13;21.80;99.00
43673;DHT22;41723;49.326;8.430;2023-06-26T05:09:39;21.90;99.00
43673;DHT22;41723;49.326;8.430;2023-06-26T05:12:04;22.00;99.00
43673;DHT22;41723;49.326;8.430;2023-06-26T05:14:30;21.90;98.70
43673;DHT22;41723;49.326;8.430;2023-06-26T05:16:56;21.90;98.90
43673;DHT22;41723;49.326;8.430;2023-06-26T05:19:21;21.90;99.10
43673;DHT22;41723;49.326;8.430;2023-06-26T05:21:47;21.90;98.70
43673;DHT22;41723;49.326;8.430;2023-06-26T05:24:13;21.90;98.90
43673;DHT22;41723;49.326;8.430;2023-06-26T05:26:39;22.00;98.70
43673;DHT22;41723;49.326;8.430;2023-06-26T05:29:05;22.10;98.70
43673;DHT22;41723;49.326;8.430;2023-06-26T05:31:32;22.10;98.60
43673;DHT22;41723;49.326;8.430;2023-06-26T05:33:59;22.20;98.50
43673;DHT22;41723;49.326;8.430;2023-06-26T05:36:26;22.30;98.60
43673;DHT22;41723;49.326;8.430;2023-06-26T05:38:54;22.30;98.50
43673;DHT22;41723;49.326;8.430;2023-06-26T05:41:21;22.20;98.50
43673;DHT22;41723;49.326;8.430;2023-06-26T05:43:47;22.40;98.50
43673;DHT22;41723;49.326;8.430;2023-06-26T05:46:12;22.40;98.10
43673;DHT22;41723;49.326;8.430;2023-06-26T05:48:38;22.50;98.20
43673;DHT22;41723;49.326;8.430;2023-06-26T05:51:04;22.50;98.00
43673;DHT22;41723;49.326;8.430;2023-06-26T05:53:30;22.60;97.80
43673;DHT22;41723;49.326;8.430;2023-06-26T05:55:56;22.60;97.70
43673;DHT22;41723;49.326;8.430;2023-06-26T05:58:22;22.60;97.50
43673;DHT22;41723;49.326;8.430;2023-06-26T06:00:49;22.70;97.70
43673;DHT22;41723;49.326;8.430;2023-06-26T06:03:14;22.80;97.70
43673;DHT22;41723;49.326;8.430;2023-06-26T06:05:40;22.90;97.40
43673;DHT22;41723;49.326;8.430;2023-06-26T06:08:05;22.90;97.40
43673;DHT22;41723;49.326;8.430;2023-06-26T06:10:31;23.00;97.50
43673;DHT22;41723;49.326;8.430;2023-06-26T06:12:56;23.20;97.20
43673;DHT22;41723;49.326;8.430;2023-06-26T06:15:22;23.30;96.80
43673;DHT22;41723;49.326;8.430;2023-06-26T06:17:48;23.30;96.40
43673;DHT22;41723;49.326;8.430;2023-06-26T06:20:13;23.40;96.50
43673;DHT22;41723;49.326;8.430;2023-06-26T06:22:39;23.40;96.50
43673;DHT22;41723;49.326;8.430;2023-06-26T06:25:04;23.60;96.40
43673;DHT22;41723;49.326;8.430;2023-06-26T06:27:30;23.70;96.20
43673;DHT22;41723;49.326;8.430;2023-06-26T06:29:56;23.80;96.00
43673;DHT22;41723;49.326;8.430;2023-06-26T06:32:22;23.80;95.50
43673;DHT22;41723;49.326;8.430;2023-06-26T06:34:48;23.90;95.20
43673;DHT22;41723;49.326;8.430;2023-06-26T06:37:13;24.00;95.40
43673;DHT22;41723;49.326;8.430;2023-06-26T06:39:39;24.00;95.50
43673;DHT22;41723;49.326;8.430;2023-06-26T06:42:04;24.00;95.30
43673;DHT22;41723;49.326;8.430;2023-06-26T06:44:30;24.20;95.40
43673;DHT22;41723;49.326;8.430;2023-06-26T06:46:56;24.30;95.40
43673;DHT22;41723;49.326;8.430;2023-06-26T06:49:21;24.40;95.40
43673;DHT22;41723;49.326;8.430;2023-06-26T06:51:47;24.40;95.00
43673;DHT22;41723;49.326;8.430;2023-06-26T06:54:15;24.60;94.80
43673;DHT22;41723;49.326;8.430;2023-06-26T06:56:40;24.70;94.60
43673;DHT22;41723;49.326;8.430;2023-06-26T06:59:06;24.70;94.50
43673;DHT22;41723;49.326;8.430;2023-06-26T07:01:31;24.80;94.20
43673;DHT22;41723;49.326;8.430;2023-06-26T07:03:57;24.90;94.50
43673;DHT22;41723;49.326;8.430;2023-06-26T07:06:23;24.80;94.10
43673;DHT22;41723;49.326;8.430;2023-06-26T07:08:48;25.00;93.80
43673;DHT22;41723;49.326;8.430;2023-06-26T07:11:14;25.00;93.40
43673;DHT22;41723;49.326;8.430;2023-06-26T07:13:39;25.00;93.50
43673;DHT22;41723;49.326;8.430;2023-06-26T07:16:05;25.10;93.30
43673;DHT22;41723;49.326;8.430;2023-06-26T07:18:30;25.10;93.10
43673;DHT22;41723;49.326;8.430;2023-06-26T07:20:56;25.10;93.00
43673;DHT22;41723;49.326;8.430;2023-06-26T07:23:21;25.20;93.00
43673;DHT22;41723;49.326;8.430;2023-06-26T07:25:47;25.30;93.00
43673;DHT22;41723;49.326;8.430;2023-06-26T07:28:13;25.30;93.10
43673;DHT22;41723;49.326;8.430;2023-06-26T07:30:39;25.40;93.30
43673;DHT22;41723;49.326;8.430;2023-06-26T07:33:04;25.40;92.90
43673;DHT22;41723;49.326;8.430;2023-06-26T07:35:30;25.50;92.90
43673;DHT22;41723;49.326;8.430;2023-06-26T07:37:55;25.60;92.70
43673;DHT22;41723;49.326;8.430;2023-06-26T07:40:21;25.70;92.70
43673;DHT22;41723;49.326;8.430;2023-06-26T07:42:47;25.70;92.60
43673;DHT22;41723;49.326;8.430;2023-06-26T07:45:12;25.80;92.50
43673;DHT22;41723;49.326;8.430;2023-06-26T07:47:38;25.80;92.40
43673;DHT22;41723;49.326;8.430;2023-06-26T07:50:04;25.80;92.50
43673;DHT22;41723;49.326;8.430;2023-06-26T07:52:30;25.90;92.50
43673;DHT22;41723;49.326;8.430;2023-06-26T07:54:56;25.90;92.60
43673;DHT22;41723;49.326;8.430;2023-06-26T07:57:21;26.00;92.60
43673;DHT22;41723;49.326;8.430;2023-06-26T07:59:47;26.00;92.50
43673;DHT22;41723;49.326;8.430;2023-06-26T08:02:12;26.20;92.60
43673;DHT22;41723;49.326;8.430;2023-06-26T08:04:38;26.20;92.30
43673;DHT22;41723;49.326;8.430;2023-06-26T08:07:04;26.30;92.20
43673;DHT22;41723;49.326;8.430;2023-06-26T08:09:29;26.40;91.90
43673;DHT22;41723;49.326;8.430;2023-06-26T08:11:56;26.40;92.10
43673;DHT22;41723;49.326;8.430;2023-06-26T08:14:21;26.50;92.20
43673;DHT22;41723;49.326;8.430;2023-06-26T08:16:47;26.60;92.00
43673;DHT22;41723;49.326;8.430;2023-06-26T08:19:13;26.70;91.90
43673;DHT22;41723;49.326;8.430;2023-06-26T08:21:42;26.80;91.90
43673;DHT22;41723;49.326;8.430;2023-06-26T08:24:08;26.80;91.80
43673;DHT22;41723;49.326;8.430;2023-06-26T08:26:34;26.90;91.90
43673;DHT22;41723;49.326;8.430;2023-06-26T08:29:00;26.90;92.00
43673;DHT22;41723;49.326;8.430;2023-06-26T08:31:26;26.90;92.00
43673;DHT22;41723;49.326;8.430;2023-06-26T08:33:51;27.00;92.00
43673;DHT22;41723;49.326;8.430;2023-06-26T08:36:17;27.10;91.90
43673;DHT22;41723;49.326;8.430;2023-06-26T08:38:43;27.20;91.90
43673;DHT22;41723;49.326;8.430;2023-06-26T08:41:08;27.40;91.80
43673;DHT22;41723;49.326;8.430;2023-06-26T08:43:34;27.50;91.70
43673;DHT22;41723;49.326;8.430;2023-06-26T08:46:00;27.40;91.50
43673;DHT22;41723;49.326;8.430;2023-06-26T08:48:25;27.50;91.60
43673;DHT22;41723;49.326;8.430;2023-06-26T08:50:52;27.40;91.50
43673;DHT22;41723;49.326;8.430;2023-06-26T08:56:03;27.50;91.50
43673;DHT22;41723;49.326;8.430;2023-06-26T08:58:28;27.50;91.50
43673;DHT22;41723;49.326;8.430;2023-06-26T09:00:54;27.70;90.70
43673;DHT22;41723;49.326;8.430;2023-06-26T09:03:21;27.70;90.70
43673;DHT22;41723;49.326;8.430;2023-06-26T09:05:47;27.80;90.60
43673;DHT22;41723;49.326;8.430;2023-06-26T09:08:12;27.80;90.80
43673;DHT22;41723;49.326;8.430;2023-06-26T09:10:39;27.80;90.80
43673;DHT22;41723;49.326;8.430;2023-06-26T09:13:04;27.90;90.70
43673;DHT22;41723;49.326;8.430;2023-06-26T09:15:37;27.90;90.80
43673;DHT22;41723;49.326;8.430;2023-06-26T09:18:04;28.00;90.90
43673;DHT22;41723;49.326;8.430;2023-06-26T09:20:30;28.10;91.00
43673;DHT22;41723;49.326;8.430;2023-06-26T09:22:58;28.10;91.00
43673;DHT22;41723;49.326;8.430;2023-06-26T09:25:24;28.00;90.80
43673;DHT22;41723;49.326;8.430;2023-06-26T09:27:49;27.90;90.90
43673;DHT22;41723;49.326;8.430;2023-06-26T09:30:18;27.90;90.80
43673;DHT22;41723;49.326;8.430;2023-06-26T09:32:44;28.10;89.80
43673;DHT22;41723;49.326;8.430;2023-06-26T09:35:10;28.20;89.70
43673;DHT22;41723;49.326;8.430;2023-06-26T09:37:36;28.40;89.60
43673;DHT22;41723;49.326;8.430;2023-06-26T09:40:02;28.60;89.50
43673;DHT22;41723;49.326;8.430;2023-06-26T09:42:29;28.80;89.40
43673;DHT22;41723;49.326;8.430;2023-06-26T09:44:54;28.80;88.30
43673;DHT22;41723;49.326;8.430;2023-06-26T09:47:20;28.70;88.30
43673;DHT22;41723;49.326;8.430;2023-06-26T09:49:46;28.70;88.40
43673;DHT22;41723;49.326;8.430;2023-06-26T09:52:15;28.80;88.30
43673;DHT22;41723;49.326;8.430;2023-06-26T09:54:45;28.80;88.20
43673;DHT22;41723;49.326;8.430;2023-06-26T09:57:11;28.90;88.30
43673;DHT22;41723;49.326;8.430;2023-06-26T09:59:38;29.00;88.60
43673;DHT22;41723;49.326;8.430;2023-06-26T10:02:04;29.10;88.70
43673;DHT22;41723;49.326;8.430;2023-06-26T10:04:30;29.10;88.50
43673;DHT22;41723;49.326;8.430;2023-06-26T10:06:56;29.10;87.90
43673;DHT22;41723;49.326;8.430;2023-06-26T10:09:22;29.20;88.80
43673;DHT22;41723;49.326;8.430;2023-06-26T10:14:27;29.40;88.80
43673;DHT22;41723;49.326;8.430;2023-06-26T10:16:53;29.40;88.60
43673;DHT22;41723;49.326;8.430;2023-06-26T10:19:22;29.30;88.60
43673;DHT22;41723;49.326;8.430;2023-06-26T10:21:51;29.30;88.90
43673;DHT22;41723;49.326;8.430;2023-06-26T10:24:18;29.30;88.70
43673;DHT22;41723;49.326;8.430;2023-06-26T10:26:44;29.30;88.70
43673;DHT22;41723;49.326;8.430;2023-06-26T10:29:11;29.40;88.10
43673;DHT22;41723;49.326;8.430;2023-06-26T10:31:38;29.40;88.20
43673;DHT22;41723;49.326;8.430;2023-06-26T10:34:04;29.30;88.40
43673;DHT22;41723;49.326;8.430;2023-06-26T10:36:30;29.30;88.80
43673;DHT22;41723;49.326;8.430;2023-06-26T10:39:06;29.40;89.10
43673;DHT22;41723;49.326;8.430;2023-06-26T10:41:39;29.50;88.80
43673;DHT22;41723;49.326;8.430;2023-06-26T10:44:06;29.70;88.70
43673;DHT22;41723;49.326;8.430;2023-06-26T10:46:33;29.80;88.70
43673;DHT22;41723;49.326;8.430;2023-06-26T10:48:58;29.60;88.30
43673;DHT22;41723;49.326;8.430;2023-06-26T10:51:28;29.50;87.90
43673;DHT22;41723;49.326;8.430;2023-06-26T10:53:54;29.40;88.20
43673;DHT22;41723;49.326;8.430;2023-06-26T10:56:20;29.50;88.40
43673;DHT22;41723;49.326;8.430;2023-06-26T10:58:47;29.40;88.10
43673;DHT22;41723;49.326;8.430;2023-06-26T11:01:25;29.50;88.90
43673;DHT22;41723;49.326;8.430;2023-06-26T11:06:22;29.40;88.40
43673;DHT22;41723;49.326;8.430;2023-06-26T11:08:52;29.50;88.60
43673;DHT22;41723;49.326;8.430;2023-06-26T11:11:22;29.80;87.90
43673;DHT22;41723;49.326;8.430;2023-06-26T11:14:06;29.80;87.80
43673;DHT22;41723;49.326;8.430;2023-06-26T11:16:31;30.10;87.40
43673;DHT22;41723;49.326;8.430;2023-06-26T11:18:58;30.20;87.50
43673;DHT22;41723;49.326;8.430;2023-06-26T11:21:23;30.20;87.00
43673;DHT22;41723;49.326;8.430;2023-06-26T11:23:49;30.20;86.40
43673;DHT22;41723;49.326;8.430;2023-06-26T11:26:18;30.30;86.20
43673;DHT22;41723;49.326;8.430;2023-06-26T11:28:47;30.20;85.80
43673;DHT22;41723;49.326;8.430;2023-06-26T11:31:29;30.30;86.10
43673;DHT22;41723;49.326;8.430;2023-06-26T11:33:55;30.30;85.90
43673;DHT22;41723;49.326;8.430;2023-06-26T11:36:25;30.30;86.50
43673;DHT22;41723;49.326;8.430;2023-06-26T11:38:57;30.40;86.30
43673;DHT22;41723;49.326;8.430;2023-06-26T11:41:24;30.50;85.70
43673;DHT22;41723;49.326;8.430;2023-06-26T11:43:50;30.60;83.50
43673;DHT22;41723;49.326;8.430;2023-06-26T11:46:17;30.70;83.00
43673;DHT22;41723;49.326;8.430;2023-06-26T11:48:43;30.70;83.00
43673;DHT22;41723;49.326;8.430;2023-06-26T11:51:09;30.60;82.50
43673;DHT22;41723;49.326;8.430;2023-06-26T11:53:41;30.80;82.10
43673;DHT22;41723;49.326;8.430;2023-06-26T11:56:08;30.90;81.90
43673;DHT22;41723;49.326;8.430;2023-06-26T11:58:34;31.10;81.90
43673;DHT22;41723;49.326;8.430;2023-06-26T12:01:00;31.10;81.00
43673;DHT22;41723;49.326;8.430;2023-06-26T12:03:25;31.00;80.90
43673;DHT22;41723;49.326;8.430;2023-06-26T12:05:51;30.80;80.60
43673;DHT22;41723;49.326;8.430;2023-06-26T12:08:17;31.00;81.40
43673;DHT22;41723;49.326;8.430;2023-06-26T12:10:44;31.00;79.70
43673;DHT22;41723;49.326;8.430;2023-06-26T12:13:10;31.00;79.50
43673;DHT22;41723;49.326;8.430;2023-06-26T12:15:36;30.90;79.40
43673;DHT22;41723;49.326;8.430;2023-06-26T12:18:07;31.00;79.70
43673;DHT22;41723;49.326;8.430;2023-06-26T12:20:33;31.20;79.20
43673;DHT22;41723;49.326;8.430;2023-06-26T12:22:58;31.10;78.20
43673;DHT22;41723;49.326;8.430;2023-06-26T12:25:24;30.80;77.50
43673;DHT22;41723;49.326;8.430;2023-06-26T12:27:50;30.80;77.20
43673;DHT22;41723;49.326;8.430;2023-06-26T12:30:15;30.80;76.70
43673;DHT22;41723;49.326;8.430;2023-06-26T12:32:44;30.80;76.70
43673;DHT22;41723;49.326;8.430;2023-06-26T12:35:11;30.90;76.50
43673;DHT22;41723;49.326;8.430;2023-06-26T12:37:37;31.00;76.10
43673;DHT22;41723;49.326;8.430;2023-06-26T12:40:15;31.00;76.10
43673;DHT22;41723;49.326;8.430;2023-06-26T12:42:41;31.00;75.30
43673;DHT22;41723;49.326;8.430;2023-06-26T12:45:13;30.90;75.40
43673;DHT22;41723;49.326;8.430;2023-06-26T12:47:39;30.90;75.60
43673;DHT22;41723;49.326;8.430;2023-06-26T12:50:06;31.00;75.30
43673;DHT22;41723;49.326;8.430;2023-06-26T12:52:32;30.80;75.30
43673;DHT22;41723;49.326;8.430;2023-06-26T12:54:58;30.90;75.90
43673;DHT22;41723;49.326;8.430;2023-06-26T12:57:23;31.10;75.10
43673;DHT22;41723;49.326;8.430;2023-06-26T12:59:49;31.10;74.60
43673;DHT22;41723;49.326;8.430;2023-06-26T13:02:14;31.10;73.90
43673;DHT22;41723;49.326;8.430;2023-06-26T13:04:40;31.10;73.90
43673;DHT22;41723;49.326;8.430;2023-06-26T13:07:06;30.90;72.60
43673;DHT22;41723;49.326;8.430;2023-06-26T13:09:32;31.10;73.20
43673;DHT22;41723;49.326;8.430;2023-06-26T13:11:58;30.90;73.40
43673;DHT22;41723;49.326;8.430;2023-06-26T13:14:24;31.00;72.30
43673;DHT22;41723;49.326;8.430;2023-06-26T13:16:50;31.00;72.90
43673;DHT22;41723;49.326;8.430;2023-06-26T13:19:15;31.00;72.80
43673;DHT22;41723;49.326;8.430;2023-06-26T13:21:41;31.10;73.20
43673;DHT22;41723;49.326;8.430;2023-06-26T13:24:07;30.90;73.20
43673;DHT22;41723;49.326;8.430;2023-06-26T13:26:33;31.00;73.20
43673;DHT22;41723;49.326;8.430;2023-06-26T13:28:58;30.80;73.10
43673;DHT22;41723;49.326;8.430;2023-06-26T13:31:24;30.70;72.80
43673;DHT22;41723;49.326;8.430;2023-06-26T13:33:50;30.80;73.10
43673;DHT22;41723;49.326;8.430;2023-06-26T13:36:17;30.80;71.90
43673;DHT22;41723;49.326;8.430;2023-06-26T13:38:43;30.60;71.80
43673;DHT22;41723;49.326;8.430;2023-06-26T13:41:09;30.70;72.50
43673;DHT22;41723;49.326;8.430;2023-06-26T13:43:35;30.80;72.70
43673;DHT22;41723;49.326;8.430;2023-06-26T13:46:00;30.80;72.00
43673;DHT22;41723;49.326;8.430;2023-06-26T13:48:26;30.80;71.40
43673;DHT22;41723;49.326;8.430;2023-06-26T13:50:52;30.80;72.30
43673;DHT22;41723;49.326;8.430;2023-06-26T13:53:18;30.60;72.00
43673;DHT22;41723;49.326;8.430;2023-06-26T13:55:43;30.50;72.10
43673;DHT22;41723;49.326;8.430;2023-06-26T13:58:09;30.60;71.50
43673;DHT22;41723;49.326;8.430;2023-06-26T14:00:35;30.60;71.10
43673;DHT22;41723;49.326;8.430;2023-06-26T14:03:04;30.50;70.70
43673;DHT22;41723;49.326;8.430;2023-06-26T14:05:34;30.40;70.40
43673;DHT22;41723;49.326;8.430;2023-06-26T14:08:01;30.60;71.00
43673;DHT22;41723;49.326;8.430;2023-06-26T14:10:28;30.60;68.90
43673;DHT22;41723;49.326;8.430;2023-06-26T14:12:53;30.40;68.60
43673;DHT22;41723;49.326;8.430;2023-06-26T14:15:19;30.20;67.90
43673;DHT22;41723;49.326;8.430;2023-06-26T14:17:44;30.20;67.50
43673;DHT22;41723;49.326;8.430;2023-06-26T14:20:10;30.40;67.40
43673;DHT22;41723;49.326;8.430;2023-06-26T14:22:41;30.40;67.20
43673;DHT22;41723;49.326;8.430;2023-06-26T14:25:07;30.40;66.90
43673;DHT22;41723;49.326;8.430;2023-06-26T14:27:33;30.30;65.20
43673;DHT22;41723;49.326;8.430;2023-06-26T14:29:59;30.20;64.70
43673;DHT22;41723;49.326;8.430;2023-06-26T14:32:25;30.10;62.40
43673;DHT22;41723;49.326;8.430;2023-06-26T14:34:50;29.90;63.40
43673;DHT22;41723;49.326;8.430;2023-06-26T14:37:16;30.00;63.60
43673;DHT22;41723;49.326;8.430;2023-06-26T14:39:44;29.90;63.70
43673;DHT22;41723;49.326;8.430;2023-06-26T14:42:10;30.10;62.20
43673;DHT22;41723;49.326;8.430;2023-06-26T14:44:35;30.20;60.50
43673;DHT22;41723;49.326;8.430;2023-06-26T14:47:01;30.00;59.60
43673;DHT22;41723;49.326;8.430;2023-06-26T14:49:27;29.90;58.20
43673;DHT22;41723;49.326;8.430;2023-06-26T14:51:52;29.50;57.80
43673;DHT22;41723;49.326;8.430;2023-06-26T14:54:18;29.40;58.70
43673;DHT22;41723;49.326;8.430;2023-06-26T14:56:43;29.30;59.50
43673;DHT22;41723;49.326;8.430;2023-06-26T14:59:11;29.50;59.70
43673;DHT22;41723;49.326;8.430;2023-06-26T15:01:37;29.40;60.10
43673;DHT22;41723;49.326;8.430;2023-06-26T15:04:02;29.50;59.40
43673;DHT22;41723;49.326;8.430;2023-06-26T15:06:28;29.40;59.30
43673;DHT22;41723;49.326;8.430;2023-06-26T15:08:54;29.60;58.40
43673;DHT22;41723;49.326;8.430;2023-06-26T15:11:19;29.60;58.10
43673;DHT22;41723;49.326;8.430;2023-06-26T15:13:45;29.60;58.20
43673;DHT22;41723;49.326;8.430;2023-06-26T15:16:10;29.70;58.20
43673;DHT22;41723;49.326;8.430;2023-06-26T15:18:36;29.50;58.00
43673;DHT22;41723;49.326;8.430;2023-06-26T15:21:02;29.40;58.20
43673;DHT22;41723;49.326;8.430;2023-06-26T15:23:28;29.50;57.50
43673;DHT22;41723;49.326;8.430;2023-06-26T15:25:54;29.60;57.20
43673;DHT22;41723;49.326;8.430;2023-06-26T15:28:19;29.60;55.80
43673;DHT22;41723;49.326;8.430;2023-06-26T15:30:46;29.50;56.00
43673;DHT22;41723;49.326;8.430;2023-06-26T15:33:12;29.40;56.30
43673;DHT22;41723;49.326;8.430;2023-06-26T15:35:38;29.20;56.30